Time;durP1;ratioP1;P1;durP2;ratioP2;P2;SDS_P1;SDS_P2;PMS_P1;PMS_P2;Temp;Humidity;BMP_temperature;BMP_pressure;BME280_temperature;BME280_humidity;BME280_pressure;Samples;Min_cycle;Max_cycle;Signal;HPM_P1;HPM_P2
2021/07/17 00:01:31;;;;;;;11.45;4.25;;;19.20;92.90;;;;;;5072533;28;20017;-74
2021/07/17 00:03:57;;;;;;;12.30;4.10;;;19.20;92.90;;;;;;5072256;28;20066;-73
2021/07/17 00:06:22;;;;;;;9.10;4.05;;;19.20;92.90;;;;;;5071539;28;20028;-73
2021/07/17 00:08:50;;;;;;;9.68;4.30;;;19.10;92.90;;;;;;5075490;28;20025;-73
2021/07/17 00:11:17;;;;;;;12.77;4.15;;;19.10;93.00;;;;;;5072482;28;20028;-73
2021/07/17 00:13:42;;;;;;;8.52;3.80;;;19.10;93.00;;;;;;5073802;28;20031;-73
2021/07/17 00:16:08;;;;;;;14.32;4.50;;;19.10;93.10;;;;;;5071468;28;20386;-73
2021/07/17 00:18:34;;;;;;;9.05;4.00;;;19.10;93.40;;;;;;5074914;28;20041;-74
2021/07/17 00:20:59;;;;;;;12.18;4.45;;;19.10;93.20;;;;;;5072154;28;20020;-73
2021/07/17 00:23:25;;;;;;;9.70;3.90;;;19.00;93.20;;;;;;5074764;28;20059;-73
2021/07/17 00:25:53;;;;;;;8.75;3.60;;;19.00;93.20;;;;;;5071395;28;20430;-73
2021/07/17 00:28:19;;;;;;;8.40;3.53;;;19.10;93.20;;;;;;5070894;28;20107;-73
2021/07/17 00:30:46;;;;;;;10.73;3.65;;;19.10;93.20;;;;;;5072191;28;20039;-73
2021/07/17 00:33:12;;;;;;;9.65;3.72;;;19.10;93.20;;;;;;5071224;28;20024;-73
2021/07/17 00:35:37;;;;;;;8.45;3.90;;;19.10;93.30;;;;;;5076149;28;20481;-73
2021/07/17 00:38:04;;;;;;;9.50;4.15;;;19.00;93.30;;;;;;5071818;28;20052;-73
2021/07/17 00:40:31;;;;;;;8.07;4.15;;;19.00;93.30;;;;;;5073054;28;20017;-73
2021/07/17 00:42:56;;;;;;;10.07;4.68;;;19.00;93.40;;;;;;5071010;28;20016;-74
2021/07/17 00:45:22;;;;;;;7.70;3.70;;;19.00;93.40;;;;;;5072233;28;20389;-73
2021/07/17 00:47:47;;;;;;;8.80;3.97;;;19.00;93.40;;;;;;5070389;28;20074;-73
2021/07/17 00:50:15;;;;;;;15.13;5.07;;;19.00;93.40;;;;;;5071321;28;20111;-73
2021/07/17 00:52:44;;;;;;;12.98;4.78;;;19.00;93.50;;;;;;5077765;28;20063;-73
2021/07/17 00:55:11;;;;;;;8.55;4.38;;;18.90;93.50;;;;;;5073135;28;20479;-74
2021/07/17 00:57:39;;;;;;;9.50;4.05;;;18.90;93.60;;;;;;5074522;28;20095;-73
2021/07/17 01:00:10;;;;;;;9.70;4.03;;;18.90;93.70;;;;;;5076064;28;20028;-73
2021/07/17 01:02:51;;;;;;;10.38;3.40;;;18.90;93.70;;;;;;5080657;28;20051;-73
2021/07/17 01:05:17;;;;;;;10.40;3.72;;;18.90;93.70;;;;;;5075169;28;20016;-73
2021/07/17 01:07:47;;;;;;;8.80;3.58;;;18.90;94.00;;;;;;5074963;28;20115;-73
2021/07/17 01:10:15;;;;;;;8.70;3.67;;;18.90;93.70;;;;;;5077087;28;20020;-74
2021/07/17 01:12:41;;;;;;;10.20;3.72;;;18.80;93.80;;;;;;5074109;28;20025;-73
2021/07/17 01:15:07;;;;;;;10.80;4.40;;;18.80;93.80;;;;;;5073472;28;20061;-73
2021/07/17 01:17:34;;;;;;;9.95;4.07;;;18.90;93.90;;;;;;5077261;28;20025;-73
2021/07/17 01:20:00;;;;;;;11.15;4.25;;;18.80;93.90;;;;;;5078181;28;20027;-74
2021/07/17 01:22:26;;;;;;;8.65;3.60;;;18.80;93.90;;;;;;5077053;28;20115;-73
2021/07/17 01:24:52;;;;;;;10.25;4.70;;;18.80;93.90;;;;;;5076254;28;20467;-73
2021/07/17 01:27:18;;;;;;;9.73;4.25;;;18.80;94.00;;;;;;5076616;28;20104;-73
2021/07/17 01:29:45;;;;;;;9.85;4.22;;;18.80;94.10;;;;;;5074828;28;20032;-73
2021/07/17 01:32:11;;;;;;;8.38;4.28;;;18.80;94.10;;;;;;5074858;28;20021;-73
2021/07/17 01:34:37;;;;;;;13.73;4.40;;;18.70;94.10;;;;;;5075559;28;20028;-73
2021/07/17 01:37:03;;;;;;;7.78;4.22;;;18.70;94.10;;;;;;5076994;28;20073;-73
2021/07/17 01:39:28;;;;;;;13.55;4.78;;;18.70;94.20;;;;;;5074807;28;20071;-73
2021/07/17 01:41:54;;;;;;;11.63;4.40;;;18.70;94.30;;;;;;5075614;28;20074;-73
2021/07/17 01:44:19;;;;;;;9.25;4.82;;;18.60;94.30;;;;;;5076155;28;20477;-73
2021/07/17 01:46:46;;;;;;;10.35;4.80;;;18.60;94.40;;;;;;5074938;28;20032;-73
2021/07/17 01:49:12;;;;;;;10.60;4.43;;;18.60;94.40;;;;;;5074833;28;20020;-73
2021/07/17 01:51:37;;;;;;;15.02;5.22;;;18.50;94.50;;;;;;5078641;28;20500;-73
2021/07/17 01:54:03;;;;;;;11.93;4.97;;;18.50;94.60;;;;;;5082227;28;20028;-73
2021/07/17 01:56:28;;;;;;;9.60;4.32;;;18.50;94.70;;;;;;5094558;28;20461;-73
2021/07/17 01:58:55;;;;;;;9.80;5.20;;;18.40;94.70;;;;;;5076818;28;20359;-73
2021/07/17 02:01:22;;;;;;;10.52;5.03;;;18.40;94.80;;;;;;5075940;28;20016;-73
2021/07/17 02:03:49;;;;;;;13.85;5.68;;;18.40;94.90;;;;;;5075391;28;20066;-73
2021/07/17 02:06:26;;;;;;;9.52;4.90;;;18.30;94.90;;;;;;5074155;28;20025;-73
2021/07/17 02:08:52;;;;;;;11.43;5.68;;;18.30;94.90;;;;;;5075065;28;20056;-73
2021/07/17 02:11:18;;;;;;;11.77;5.47;;;18.20;95.00;;;;;;5074325;28;20066;-73
2021/07/17 02:13:45;;;;;;;11.50;4.63;;;18.20;95.00;;;;;;5074827;28;20036;-73
2021/07/17 02:16:10;;;;;;;12.57;4.30;;;18.10;95.30;;;;;;5072796;28;20016;-73
2021/07/17 02:18:36;;;;;;;12.77;5.18;;;18.10;95.00;;;;;;5080717;28;20439;-73
2021/07/17 02:21:05;;;;;;;11.35;4.72;;;18.10;95.10;;;;;;5075639;28;20017;-73
2021/07/17 02:23:30;;;;;;;11.50;5.15;;;18.10;95.10;;;;;;5076759;28;20016;-73
2021/07/17 02:25:56;;;;;;;9.48;4.40;;;18.10;95.10;;;;;;5074574;28;20061;-73
2021/07/17 02:28:22;;;;;;;11.45;4.55;;;18.10;95.00;;;;;;5073620;28;20027;-74
2021/07/17 02:30:49;;;;;;;10.63;5.20;;;18.10;95.00;;;;;;5073925;28;20023;-73
2021/07/17 02:33:15;;;;;;;10.32;4.85;;;18.10;95.00;;;;;;5073430;28;20052;-73
2021/07/17 02:35:41;;;;;;;7.30;3.72;;;18.10;95.00;;;;;;5078242;28;20449;-73
2021/07/17 02:38:07;;;;;;;13.95;4.70;;;18.10;95.00;;;;;;5074737;28;20139;-73
2021/07/17 02:40:32;;;;;;;11.32;4.88;;;18.10;95.00;;;;;;5076076;28;20021;-73
2021/07/17 02:42:58;;;;;;;13.38;4.50;;;18.00;95.00;;;;;;5074302;28;20091;-73
2021/07/17 02:45:23;;;;;;;11.38;4.40;;;18.10;95.10;;;;;;5075757;28;20036;-73
2021/07/17 02:47:49;;;;;;;10.13;4.30;;;18.00;95.00;;;;;;5076398;28;20531;-73
2021/07/17 02:50:15;;;;;;;14.93;5.22;;;18.00;95.10;;;;;;5071742;28;20016;-73
2021/07/17 02:52:40;;;;;;;11.73;4.30;;;18.00;95.10;;;;;;5080139;28;20020;-73
2021/07/17 02:55:06;;;;;;;12.05;4.47;;;18.00;95.10;;;;;;5074776;28;20032;-73
2021/07/17 02:57:32;;;;;;;12.35;4.00;;;18.00;95.20;;;;;;5076215;28;20040;-73
2021/07/17 02:59:58;;;;;;;13.00;4.43;;;18.00;95.20;;;;;;5074004;28;20125;-73
2021/07/17 03:02:25;;;;;;;8.25;3.95;;;18.00;95.20;;;;;;5073610;28;20051;-73
2021/07/17 03:04:50;;;;;;;14.00;5.10;;;18.00;95.20;;;;;;5071651;28;20020;-73
2021/07/17 03:07:16;;;;;;;9.32;4.20;;;18.00;95.20;;;;;;5074316;28;20031;-73
2021/07/17 03:09:41;;;;;;;13.13;4.20;;;18.00;95.30;;;;;;5073032;28;20036;-73
2021/07/17 03:12:07;;;;;;;9.50;3.92;;;18.00;95.30;;;;;;5072384;28;20021;-73
2021/07/17 03:14:33;;;;;;;11.82;4.50;;;18.00;95.30;;;;;;5073000;28;20020;-73
2021/07/17 03:16:58;;;;;;;7.63;4.30;;;18.10;95.30;;;;;;5072458;28;20024;-73
2021/07/17 03:19:24;;;;;;;11.00;4.07;;;18.10;95.30;;;;;;5074897;28;20024;-73
2021/07/17 03:21:50;;;;;;;10.65;4.93;;;18.00;95.30;;;;;;5075638;28;20025;-73
2021/07/17 03:24:16;;;;;;;13.93;5.65;;;18.00;95.40;;;;;;5072664;28;20428;-73
2021/07/17 03:26:41;;;;;;;10.13;5.35;;;17.90;95.50;;;;;;5075693;28;20074;-72
2021/07/17 03:29:07;;;;;;;12.05;5.25;;;17.90;95.70;;;;;;5087546;28;20040;-73
2021/07/17 03:31:33;;;;;;;12.38;5.13;;;17.80;95.80;;;;;;5073939;28;20059;-73
2021/07/17 03:34:00;;;;;;;11.98;5.38;;;17.80;95.90;;;;;;5072341;28;20477;-73
2021/07/17 03:36:26;;;;;;;9.20;4.32;;;17.80;96.00;;;;;;5076101;28;20016;-73
2021/07/17 03:38:52;;;;;;;10.60;4.68;;;17.80;96.30;;;;;;5074578;28;20040;-73
2021/07/17 03:41:18;;;;;;;12.25;4.95;;;17.70;96.10;;;;;;5073535;28;20035;-73
2021/07/17 03:43:45;;;;;;;15.75;5.97;;;17.70;96.20;;;;;;5074114;28;20028;-73
2021/07/17 03:46:10;;;;;;;14.48;5.88;;;17.70;96.30;;;;;;5071442;28;20031;-73
2021/07/17 03:48:36;;;;;;;13.05;6.22;;;17.70;96.40;;;;;;5072544;28;20024;-73
2021/07/17 03:51:02;;;;;;;13.57;5.25;;;17.70;96.50;;;;;;5070692;28;20028;-74
2021/07/17 03:53:28;;;;;;;17.42;5.53;;;17.70;96.50;;;;;;5074946;28;20498;-73
2021/07/17 03:55:54;;;;;;;13.98;5.55;;;17.60;96.60;;;;;;5076415;28;20024;-74
2021/07/17 03:58:19;;;;;;;11.57;5.00;;;17.60;96.70;;;;;;5073620;28;20020;-73
2021/07/17 04:00:45;;;;;;;15.85;4.93;;;17.60;96.70;;;;;;5073963;28;20501;-73
2021/07/17 04:03:10;;;;;;;12.07;5.72;;;17.60;96.70;;;;;;5074036;28;20025;-73
2021/07/17 04:05:36;;;;;;;10.02;4.50;;;17.60;96.80;;;;;;5077298;28;20020;-73
2021/07/17 04:08:02;;;;;;;10.93;4.68;;;17.60;96.80;;;;;;5076704;28;20026;-73
2021/07/17 04:10:28;;;;;;;11.30;4.95;;;17.60;96.80;;;;;;5073333;28;20515;-73
2021/07/17 04:12:53;;;;;;;10.73;4.43;;;17.70;96.80;;;;;;5072823;28;20036;-73
2021/07/17 04:15:19;;;;;;;12.70;4.28;;;17.70;96.80;;;;;;5071404;28;20481;-73
2021/07/17 04:17:44;;;;;;;9.30;4.20;;;17.60;96.80;;;;;;5071513;28;20052;-73
2021/07/17 04:20:10;;;;;;;10.45;5.13;;;17.60;96.80;;;;;;5076258;28;20032;-73
2021/07/17 04:22:37;;;;;;;8.38;4.18;;;17.60;96.90;;;;;;5073445;28;20035;-74
2021/07/17 04:25:04;;;;;;;13.38;4.07;;;17.60;97.00;;;;;;5072687;28;20017;-73
2021/07/17 04:27:30;;;;;;;10.15;4.10;;;17.60;97.00;;;;;;5074530;28;20469;-73
2021/07/17 04:29:55;;;;;;;12.55;4.53;;;17.60;97.00;;;;;;5075079;28;20016;-74
2021/07/17 04:32:21;;;;;;;10.38;4.07;;;17.70;97.00;;;;;;5074031;28;20501;-73
2021/07/17 04:34:46;;;;;;;11.52;4.30;;;17.60;97.00;;;;;;5076339;28;20027;-73
2021/07/17 04:37:16;;;;;;;8.88;3.78;;;17.60;97.00;;;;;;5080216;28;20027;-73
2021/07/17 04:39:43;;;;;;;8.07;4.45;;;17.70;97.00;;;;;;5076127;28;20566;-73
2021/07/17 04:42:09;;;;;;;10.88;4.82;;;17.60;97.10;;;;;;5076933;28;20039;-73
2021/07/17 04:44:34;;;;;;;10.73;3.80;;;17.60;97.10;;;;;;5075300;28;20474;-73
2021/07/17 04:47:00;;;;;;;13.77;4.50;;;17.60;97.20;;;;;;5074993;28;20021;-73
2021/07/17 04:49:25;;;;;;;9.88;3.75;;;17.60;97.20;;;;;;5074741;28;20053;-73
2021/07/17 04:51:51;;;;;;;12.55;4.20;;;17.70;97.20;;;;;;5074722;28;20048;-74
2021/07/17 04:54:16;;;;;;;10.95;3.47;;;17.80;97.20;;;;;;5077463;28;20012;-73
2021/07/17 04:56:42;;;;;;;12.00;4.03;;;17.80;97.20;;;;;;5076863;28;20362;-73
2021/07/17 04:59:07;;;;;;;8.38;3.25;;;17.80;97.20;;;;;;5077599;28;20020;-73
2021/07/17 05:01:33;;;;;;;10.50;3.85;;;17.80;97.20;;;;;;5074449;28;20020;-73
2021/07/17 05:03:58;;;;;;;6.55;3.25;;;17.80;97.20;;;;;;5073165;28;20066;-73
2021/07/17 05:06:24;;;;;;;12.48;3.97;;;17.90;97.20;;;;;;5087700;28;20088;-73
2021/07/17 05:08:49;;;;;;;13.20;4.20;;;17.80;97.20;;;;;;5074178;28;20059;-73
2021/07/17 05:11:15;;;;;;;13.82;5.22;;;17.90;97.30;;;;;;5074728;28;20032;-73
2021/07/17 05:13:40;;;;;;;9.55;4.28;;;17.80;97.30;;;;;;5080182;28;20032;-73
2021/07/17 05:16:06;;;;;;;10.57;4.43;;;17.80;97.40;;;;;;5094389;28;20024;-73
2021/07/17 05:18:32;;;;;;;15.10;5.15;;;17.90;97.40;;;;;;5094210;28;20020;-73
2021/07/17 05:20:58;;;;;;;9.88;4.32;;;17.80;97.50;;;;;;5094285;28;20020;-73
2021/07/17 05:23:24;;;;;;;12.70;5.82;;;17.90;97.60;;;;;;5093109;28;20389;-73
2021/07/17 05:25:51;;;;;;;16.65;6.18;;;17.80;97.60;;;;;;5094499;28;20020;-73
2021/07/17 05:28:17;;;;;;;11.32;5.10;;;17.80;97.80;;;;;;5094132;28;20070;-73
2021/07/17 05:30:42;;;;;;;11.23;5.55;;;17.80;97.90;;;;;;5094390;28;20107;-73
2021/07/17 05:33:10;;;;;;;14.15;5.78;;;17.80;98.00;;;;;;5093971;28;20100;-72
2021/07/17 05:35:35;;;;;;;10.15;5.22;;;17.80;98.10;;;;;;5087380;28;20111;-73
2021/07/17 05:38:01;;;;;;;13.70;6.35;;;17.70;98.10;;;;;;5037644;28;1021992;-72
2021/07/17 05:40:26;;;;;;;12.38;5.85;;;17.70;98.30;;;;;;5076597;28;20489;-73
2021/07/17 05:42:52;;;;;;;13.70;5.88;;;17.70;98.40;;;;;;5095152;28;20036;-73
2021/07/17 05:45:18;;;;;;;13.43;5.72;;;17.80;98.40;;;;;;5093598;28;20032;-73
2021/07/17 05:47:43;;;;;;;15.48;5.75;;;17.80;98.40;;;;;;5093852;28;20554;-73
2021/07/17 05:50:09;;;;;;;11.23;5.25;;;17.80;98.30;;;;;;5078761;28;20397;-73
2021/07/17 05:52:35;;;;;;;9.45;4.43;;;17.90;98.30;;;;;;5094423;28;20046;-72
2021/07/17 05:55:02;;;;;;;11.40;4.75;;;17.90;98.30;;;;;;5094865;28;20476;-73
2021/07/17 05:57:27;;;;;;;11.38;4.53;;;18.00;98.30;;;;;;5094982;28;20469;-73
2021/07/17 05:59:53;;;;;;;11.80;5.55;;;18.10;98.20;;;;;;5095125;28;20024;-73
2021/07/17 06:02:18;;;;;;;11.40;5.38;;;18.10;98.20;;;;;;5093504;28;20032;-73
2021/07/17 06:04:45;;;;;;;20.77;7.35;;;18.20;98.20;;;;;;5094586;28;20070;-73
2021/07/17 06:07:10;;;;;;;12.38;5.18;;;18.10;98.20;;;;;;5094759;28;20019;-73
2021/07/17 06:09:36;;;;;;;11.32;5.28;;;18.10;98.30;;;;;;5093588;28;20028;-73
2021/07/17 06:12:02;;;;;;;14.68;5.30;;;18.20;98.40;;;;;;5093189;28;20020;-73
2021/07/17 06:14:28;;;;;;;15.48;5.38;;;18.20;98.40;;;;;;5094609;28;20401;-73
2021/07/17 06:16:53;;;;;;;9.95;5.38;;;18.20;98.40;;;;;;5093175;28;20454;-73
2021/07/17 06:19:19;;;;;;;12.35;5.50;;;18.20;98.40;;;;;;5094560;28;20128;-73
2021/07/17 06:21:45;;;;;;;12.40;5.30;;;18.20;98.50;;;;;;5094277;28;20020;-73
2021/07/17 06:24:10;;;;;;;10.18;5.07;;;18.30;98.60;;;;;;5094763;28;20016;-73
2021/07/17 06:26:36;;;;;;;10.48;5.00;;;18.30;98.60;;;;;;5094439;28;20031;-73
2021/07/17 06:29:01;;;;;;;11.43;4.40;;;18.40;98.60;;;;;;5094089;28;20069;-74
2021/07/17 06:31:27;;;;;;;11.75;4.05;;;18.50;98.50;;;;;;5094337;28;20055;-74
2021/07/17 06:33:52;;;;;;;9.88;4.57;;;18.60;98.50;;;;;;5092909;28;20048;-73
2021/07/17 06:36:18;;;;;;;9.95;4.10;;;18.70;98.60;;;;;;5092800;28;20028;-74
2021/07/17 06:38:45;;;;;;;12.02;4.63;;;18.70;98.30;;;;;;5094282;28;20075;-73
2021/07/17 06:41:10;;;;;;;8.32;4.20;;;18.80;98.30;;;;;;5094187;28;20087;-73
2021/07/17 06:43:36;;;;;;;10.52;4.50;;;18.80;98.20;;;;;;5092635;28;20111;-73
2021/07/17 06:46:03;;;;;;;7.70;4.50;;;18.90;98.20;;;;;;5093965;28;20023;-73
2021/07/17 06:48:29;;;;;;;10.15;5.00;;;18.80;98.20;;;;;;5093926;28;20024;-73
2021/07/17 06:50:55;;;;;;;9.18;4.70;;;18.90;98.20;;;;;;5093832;28;20036;-73
2021/07/17 06:53:21;;;;;;;8.27;3.80;;;18.90;98.10;;;;;;5093735;28;20020;-73
2021/07/17 06:55:47;;;;;;;15.40;5.07;;;19.00;98.00;;;;;;5092657;28;20020;-73
2021/07/17 06:58:13;;;;;;;12.63;4.80;;;19.00;97.90;;;;;;5093781;28;20008;-73
2021/07/17 07:00:38;;;;;;;11.40;4.97;;;19.10;97.90;;;;;;5092469;28;20028;-73
2021/07/17 07:03:04;;;;;;;7.90;4.25;;;19.10;97.80;;;;;;5081446;28;20040;-73
2021/07/17 07:05:30;;;;;;;10.48;4.30;;;19.10;97.70;;;;;;5074223;28;20029;-73
2021/07/17 07:07:56;;;;;;;9.02;4.80;;;19.10;97.70;;;;;;5072911;28;20021;-73
2021/07/17 07:10:21;;;;;;;9.23;4.40;;;19.20;97.70;;;;;;5090054;28;20040;-73
2021/07/17 07:12:47;;;;;;;8.23;4.47;;;19.30;97.70;;;;;;5091963;28;20485;-73
2021/07/17 07:15:12;;;;;;;12.48;5.30;;;19.30;97.50;;;;;;5092083;28;20043;-73
2021/07/17 07:17:39;;;;;;;10.80;5.63;;;19.30;97.50;;;;;;5088429;28;20098;-73
2021/07/17 07:20:09;;;;;;;8.82;4.35;;;19.30;97.50;;;;;;5073561;28;20028;-73
2021/07/17 07:22:34;;;;;;;11.32;4.57;;;19.40;97.40;;;;;;5074978;28;20121;-73
2021/07/17 07:25:00;;;;;;;9.55;4.45;;;19.50;97.40;;;;;;5090175;28;20496;-73
2021/07/17 07:27:25;;;;;;;6.78;3.83;;;19.50;97.30;;;;;;5089862;28;20024;-73
2021/07/17 07:29:51;;;;;;;11.43;4.05;;;19.60;97.30;;;;;;5091534;28;20172;-73
2021/07/17 07:32:17;;;;;;;8.50;3.75;;;19.70;97.30;;;;;;5091748;28;20028;-73
2021/07/17 07:34:42;;;;;;;12.20;4.40;;;19.80;97.10;;;;;;5092973;28;20478;-73
2021/07/17 07:37:08;;;;;;;8.75;4.20;;;19.80;97.00;;;;;;5093005;28;20500;-73
2021/07/17 07:39:34;;;;;;;7.60;3.67;;;19.80;97.00;;;;;;5092830;28;20059;-73
2021/07/17 07:41:59;;;;;;;11.20;3.88;;;19.80;97.00;;;;;;5092667;28;20020;-76
2021/07/17 07:44:25;;;;;;;7.55;3.95;;;19.90;96.90;;;;;;5090120;28;20455;-76
2021/07/17 07:46:53;;;;;;;4.80;3.30;;;20.00;96.90;;;;;;5078105;28;20024;-75
2021/07/17 07:49:18;;;;;;;10.98;3.20;;;20.20;96.80;;;;;;5092795;28;20024;-76
2021/07/17 07:51:44;;;;;;;5.95;3.10;;;20.30;96.60;;;;;;5092396;28;20028;-76
2021/07/17 07:54:09;;;;;;;6.88;3.15;;;20.40;96.60;;;;;;5092784;28;20077;-76
2021/07/17 07:56:35;;;;;;;8.07;3.40;;;20.50;96.40;;;;;;5090543;28;20024;-75
2021/07/17 07:59:00;;;;;;;9.45;4.25;;;20.60;96.30;;;;;;5092266;28;20073;-75
2021/07/17 08:01:26;;;;;;;6.55;3.30;;;20.70;96.10;;;;;;5087991;28;20027;-76
2021/07/17 08:03:51;;;;;;;8.10;3.42;;;20.80;96.10;;;;;;5090804;28;20019;-76
2021/07/17 08:06:17;;;;;;;11.00;4.00;;;21.00;96.00;;;;;;5087855;28;20600;-76
2021/07/17 08:08:43;;;;;;;8.70;3.72;;;21.00;95.80;;;;;;5071672;28;20478;-75
2021/07/17 08:11:09;;;;;;;6.53;2.72;;;21.00;95.60;;;;;;5071929;28;20385;-74
2021/07/17 08:13:34;;;;;;;7.82;3.45;;;21.10;95.60;;;;;;5071512;28;20032;-76
2021/07/17 08:16:02;;;;;;;6.63;3.03;;;21.20;95.40;;;;;;5071832;28;20070;-76
2021/07/17 08:18:28;;;;;;;6.70;3.03;;;21.20;95.40;;;;;;5070576;28;20540;-76
2021/07/17 08:20:55;;;;;;;5.38;2.75;;;21.30;95.30;;;;;;5082865;28;20104;-76
2021/07/17 08:23:20;;;;;;;8.48;3.50;;;21.30;95.20;;;;;;5071430;28;20017;-76
2021/07/17 08:25:46;;;;;;;6.18;3.00;;;21.40;95.10;;;;;;5071753;28;20044;-76
2021/07/17 08:28:11;;;;;;;7.32;3.28;;;21.40;95.00;;;;;;5086416;28;20020;-76
2021/07/17 08:30:38;;;;;;;8.32;3.40;;;21.50;94.90;;;;;;5091804;28;20105;-75
2021/07/17 08:33:04;;;;;;;8.18;2.78;;;21.50;94.70;;;;;;5091706;28;20473;-75
2021/07/17 08:35:30;;;;;;;4.85;2.35;;;21.50;94.60;;;;;;5086970;28;20031;-75
2021/07/17 08:37:56;;;;;;;7.35;2.88;;;21.60;94.60;;;;;;5076787;28;20040;-75
2021/07/17 08:40:23;;;;;;;8.55;3.45;;;21.70;94.50;;;;;;5091856;28;20051;-75
2021/07/17 08:42:53;;;;;;;7.03;2.80;;;21.80;94.30;;;;;;5086998;28;20029;-75
2021/07/17 08:45:19;;;;;;;;;;;21.90;94.10;;;;;;5072155;28;20036;-74
2021/07/17 08:47:46;;;;;;;8.70;2.83;;;21.90;94.10;;;;;;5088398;28;19948;-73
2021/07/17 08:50:18;;;;;;;4.65;2.20;;;21.90;94.10;;;;;;5090983;28;20032;-74
2021/07/17 08:52:44;;;;;;;5.95;2.42;;;22.00;94.00;;;;;;5091811;28;20026;-74
2021/07/17 08:55:11;;;;;;;6.32;2.30;;;22.10;94.00;;;;;;5090671;28;20024;-74
2021/07/17 08:57:43;;;;;;;4.28;2.15;;;22.10;93.70;;;;;;5092283;28;20024;-74
2021/07/17 09:00:15;;;;;;;5.50;2.20;;;22.20;93.50;;;;;;5092097;28;20091;-73
2021/07/17 09:02:43;;;;;;;4.85;1.90;;;22.30;93.30;;;;;;5089946;28;20016;-73
2021/07/17 09:05:11;;;;;;;4.70;2.15;;;22.40;93.20;;;;;;5070485;28;20024;-74
2021/07/17 09:07:37;;;;;;;5.85;1.95;;;22.50;93.00;;;;;;5073981;28;20368;-73
2021/07/17 09:10:35;;;;;;;4.22;1.95;;;22.50;92.70;;;;;;5088262;28;20024;-74
2021/07/17 09:13:22;;;;;;;5.40;1.98;;;22.60;92.30;;;;;;5085261;28;20081;-70
2021/07/17 09:15:50;;;;;;;4.57;1.80;;;22.60;92.00;;;;;;5071463;28;20081;-75
2021/07/17 09:18:21;;;;;;;5.28;1.48;;;22.60;91.60;;;;;;5088140;28;20016;-73
2021/07/17 09:21:16;;;;;;;3.45;1.42;;;22.70;91.00;;;;;;5095578;28;20160;-74
2021/07/17 09:23:45;;;;;;;3.13;1.10;;;22.70;90.60;;;;;;5095576;28;20094;-74
2021/07/17 09:26:38;;;;;;;3.92;1.35;;;22.80;90.20;;;;;;5095565;28;20020;-74
2021/07/17 09:29:11;;;;;;;2.28;0.95;;;22.90;90.20;;;;;;5094564;28;20062;-74
2021/07/17 09:31:49;;;;;;;3.38;1.45;;;23.00;90.20;;;;;;5090897;28;20024;-74
2021/07/17 09:34:17;;;;;;;2.65;1.38;;;23.10;90.00;;;;;;5095325;28;20027;-75
2021/07/17 09:37:01;;;;;;;6.22;1.60;;;23.10;89.40;;;;;;5095387;28;20103;-74
2021/07/17 09:39:39;;;;;;;2.78;1.30;;;23.20;88.50;;;;;;5093359;28;20040;-74
2021/07/17 09:42:08;;;;;;;4.45;1.05;;;23.20;88.20;;;;;;5095202;28;20130;-74
2021/07/17 09:44:35;;;;;;;3.43;1.00;;;23.30;86.80;;;;;;5095170;28;20024;-74
2021/07/17 09:47:03;;;;;;;3.05;0.90;;;23.30;86.40;;;;;;5092634;28;20032;-75
2021/07/17 09:49:29;;;;;;;2.45;1.00;;;23.30;86.40;;;;;;5083699;28;20027;-75
2021/07/17 09:52:15;;;;;;;2.13;1.13;;;23.40;86.00;;;;;;5094930;28;20020;-74
2021/07/17 09:55:00;;;;;;;2.83;1.27;;;23.50;85.70;;;;;;5077540;28;20031;-74
2021/07/17 09:57:30;;;;;;;4.90;1.10;;;23.50;85.70;;;;;;5074245;28;20107;-75
2021/07/17 10:00:09;;;;;;;2.72;1.20;;;23.50;85.40;;;;;;5077068;28;20104;-74
2021/07/17 10:02:39;;;;;;;2.75;1.10;;;23.60;85.40;;;;;;5075642;28;20013;-75
2021/07/17 10:05:10;;;;;;;1.98;0.90;;;23.70;85.70;;;;;;5074013;28;20024;-74
2021/07/17 10:07:36;;;;;;;2.60;1.10;;;23.80;85.30;;;;;;5076684;28;20024;-74
2021/07/17 10:10:03;;;;;;;5.28;1.20;;;23.90;85.00;;;;;;5073797;28;20474;-75
2021/07/17 10:12:34;;;;;;;3.13;1.30;;;24.00;84.80;;;;;;5076551;28;20052;-75
2021/07/17 10:15:01;;;;;;;4.00;1.08;;;24.00;83.90;;;;;;5072451;28;20043;-75
2021/07/17 10:17:37;;;;;;;3.63;0.80;;;24.00;84.10;;;;;;5073883;28;20021;-75
2021/07/17 10:20:15;;;;;;;3.03;0.98;;;24.10;83.90;;;;;;5073748;28;20017;-75
2021/07/17 10:22:41;;;;;;;3.95;1.25;;;24.20;83.50;;;;;;5072402;28;20029;-75
2021/07/17 10:25:09;;;;;;;2.65;0.90;;;24.20;82.00;;;;;;5072235;28;20114;-75
2021/07/17 10:27:36;;;;;;;2.28;1.00;;;24.20;81.70;;;;;;5086094;28;20028;-75
2021/07/17 10:30:04;;;;;;;1.58;0.63;;;24.30;81.80;;;;;;5072895;28;20035;-75
2021/07/17 10:32:32;;;;;;;2.88;0.93;;;24.40;81.80;;;;;;5072959;28;20055;-75
2021/07/17 10:34:57;;;;;;;3.33;0.98;;;24.50;81.10;;;;;;5073269;28;20492;-75
2021/07/17 10:37:28;;;;;;;2.22;1.00;;;24.50;80.70;;;;;;5074082;28;20111;-74
2021/07/17 10:40:15;;;;;;;2.30;0.90;;;24.60;80.90;;;;;;5093766;28;20020;-75
2021/07/17 10:42:49;;;;;;;2.33;0.90;;;24.70;80.30;;;;;;5081106;28;20016;-75
2021/07/17 10:45:43;;;;;;;2.50;0.77;;;24.80;79.90;;;;;;5093964;28;20028;-75
2021/07/17 10:48:27;;;;;;;1.80;1.02;;;24.90;79.10;;;;;;5079572;28;20039;-75
2021/07/17 10:50:55;;;;;;;3.38;0.95;;;25.10;79.10;;;;;;5085971;28;20055;-75
2021/07/17 10:53:40;;;;;;;2.35;0.98;;;25.10;79.00;;;;;;5074096;28;20029;-75
2021/07/17 10:56:25;;;;;;;3.25;1.30;;;25.20;79.00;;;;;;5072747;28;20052;-75
2021/07/17 10:58:50;;;;;;;3.78;1.10;;;25.30;78.10;;;;;;5073103;28;20095;-75
2021/07/17 11:01:16;;;;;;;2.78;1.02;;;25.40;78.60;;;;;;5073677;28;20553;-75
2021/07/17 11:03:41;;;;;;;2.10;1.00;;;25.50;78.10;;;;;;5073287;28;20027;-75
2021/07/17 11:06:35;;;;;;;3.80;1.27;;;25.60;77.90;;;;;;5072866;28;20029;-75
2021/07/17 11:09:23;;;;;;;3.08;0.82;;;25.80;77.50;;;;;;5071397;28;20036;-75
2021/07/17 11:11:48;;;;;;;2.65;0.73;;;25.90;77.10;;;;;;5071663;28;20044;-75
2021/07/17 11:14:14;;;;;;;2.33;0.70;;;25.90;77.30;;;;;;5085269;28;20037;-75
2021/07/17 11:16:47;;;;;;;4.47;1.15;;;26.10;76.60;;;;;;5071419;28;20025;-75
2021/07/17 11:19:23;;;;;;;2.47;1.40;;;26.20;75.50;;;;;;5072497;28;20013;-75
2021/07/17 11:21:49;;;;;;;1.88;0.63;;;26.30;75.10;;;;;;5072500;28;20513;-76
2021/07/17 11:24:14;;;;;;;1.95;0.70;;;26.40;75.00;;;;;;5071153;28;20048;-76
2021/07/17 11:26:41;;;;;;;2.33;0.80;;;26.50;74.30;;;;;;5071190;28;20404;-76
2021/07/17 11:29:13;;;;;;;1.88;0.70;;;26.60;73.90;;;;;;5072236;28;20028;-76
2021/07/17 11:31:47;;;;;;;1.45;0.63;;;26.70;73.70;;;;;;5073765;28;20078;-76
2021/07/17 11:34:21;;;;;;;2.25;0.68;;;26.90;73.70;;;;;;5071032;28;20117;-76
2021/07/17 11:36:57;;;;;;;2.78;0.80;;;27.00;73.50;;;;;;5072334;28;20031;-76
2021/07/17 11:39:28;;;;;;;3.95;1.52;;;27.10;72.90;;;;;;5072885;28;20185;-76
2021/07/17 11:41:56;;;;;;;2.67;1.08;;;27.20;72.50;;;;;;5070391;28;20024;-76
2021/07/17 11:44:25;;;;;;;3.15;1.17;;;27.30;72.80;;;;;;5072353;28;20504;-75
2021/07/17 11:46:59;;;;;;;3.90;1.90;;;27.50;72.20;;;;;;5073201;28;20043;-75
2021/07/17 11:49:27;;;;;;;5.35;1.40;;;27.60;71.40;;;;;;5092810;28;20115;-75
2021/07/17 11:51:55;;;;;;;1.73;0.85;;;27.60;70.30;;;;;;5092654;28;20023;-75
2021/07/17 11:54:33;;;;;;;3.22;1.00;;;27.70;70.40;;;;;;5091444;28;20016;-75
2021/07/17 11:57:04;;;;;;;1.52;0.90;;;27.90;70.00;;;;;;5091196;28;20020;-75
2021/07/17 11:59:30;;;;;;;1.80;0.85;;;27.90;69.50;;;;;;5092689;28;20476;-75
2021/07/17 12:02:11;;;;;;;1.48;0.70;;;28.00;69.80;;;;;;5092554;28;20020;-75
2021/07/17 12:04:40;;;;;;;2.58;0.82;;;28.20;68.70;;;;;;5088908;28;20029;-75
2021/07/17 12:07:12;;;;;;;2.20;0.60;;;28.10;67.80;;;;;;5070481;28;20029;-75
2021/07/17 12:09:43;;;;;;;2.50;0.60;;;28.30;67.80;;;;;;5070748;28;20017;-75
2021/07/17 12:12:23;;;;;;;2.22;0.80;;;28.40;67.30;;;;;;5071580;28;20395;-75
2021/07/17 12:15:02;;;;;;;2.45;0.82;;;28.60;67.00;;;;;;5071849;28;20548;-75
2021/07/17 12:17:29;;;;;;;2.17;0.70;;;28.80;66.70;;;;;;5071668;28;20350;-75
2021/07/17 12:20:05;;;;;;;1.75;0.70;;;28.90;66.30;;;;;;5071756;28;20016;-75
2021/07/17 12:22:31;;;;;;;1.50;0.80;;;28.90;65.10;;;;;;5070509;28;20024;-75
2021/07/17 12:25:05;;;;;;;1.98;0.85;;;29.00;65.30;;;;;;5071678;28;20021;-75
2021/07/17 12:27:31;;;;;;;2.13;0.80;;;29.00;64.30;;;;;;5070173;28;20100;-76
2021/07/17 12:29:56;;;;;;;1.00;0.60;;;29.10;64.80;;;;;;5070227;28;20155;-75
2021/07/17 12:32:21;;;;;;;1.50;0.80;;;29.30;64.60;;;;;;5071657;28;20017;-76
2021/07/17 12:34:57;;;;;;;1.98;0.70;;;29.50;64.20;;;;;;5071571;28;20024;-75
2021/07/17 12:37:29;;;;;;;1.65;0.70;;;29.70;63.80;;;;;;5072137;28;20029;-74
2021/07/17 12:40:09;;;;;;;1.58;0.80;;;29.60;62.90;;;;;;5070785;28;20043;-75
2021/07/17 12:42:45;;;;;;;2.05;0.68;;;29.70;63.40;;;;;;5071221;28;20373;-76
2021/07/17 12:45:28;;;;;;;1.98;0.70;;;29.90;63.40;;;;;;5074181;28;20032;-76
2021/07/17 12:47:55;;;;;;;2.80;1.08;;;30.00;62.30;;;;;;5077137;28;20029;-76